• Join FlightAware (Why Join?)
  • Login
  • US Flag 
06:05PM EDT


 

Airport Tracker/Info


-or-


 

Live Flight TrackerFlight Track Log ✈ SWA232 ✈ 12-May-2014 ✈ KMCI - KDAL

Flight Track Log - Related Links

Times and Time Zones

All times are in EDT time to prevent confusion due to time zone crossing. See the SWA232 flight status page for this flight to view local times or setup timezone preferences in your user account.

Time Position Orientation Groundspeed Altitude Reporting Facility
EDT Latitude Longitude Course Direction KTS MPH feet Rate Location/Type
11:47PM 39.3000 -94.7000 275° West 159 183 1,800  Level Kansas City TRACON
11:48PM 39.3039 -94.7622 275° West 232 267 6,100 3,540 Climbing Kansas City Center
11:49PM 39.2333 -94.7861 195° South 256 295 10,300 3,480 Climbing Kansas City Center
11:50PM 39.1467 -94.8142 194° South 319 367 13,200 3,120 Climbing Kansas City Center
11:52PM 39.0614 -94.8417 194° South 328 377 16,700 2,580 Climbing Kansas City Center
11:53PM 38.9639 -94.8736 194° South 359 413 18,500 2,160 Climbing Kansas City Center
11:54PM 38.8569 -94.9072 194° South 387 445 21,100 2,520 Climbing Kansas City Center
11:55PM 38.7489 -94.9425 194° South 398 458 23,700 2,400 Climbing Kansas City Center
11:56PM 38.6392 -94.9781 194° South 403 464 26,000 2,100 Climbing Kansas City Center
11:57PM 38.5281 -95.0131 194° South 407 468 28,100 1,920 Climbing Kansas City Center
11:58PM 38.4169 -95.0481 194° South 408 470 30,000 2,160 Climbing Kansas City Center
11:59PM 38.3092 -95.0831 194° South 403 464 32,500 1,920 Climbing Kansas City Center
12:00AM 38.1836 -95.0939 184° South 384 442 34,000 720 Climbing Kansas City Center
12:01AM 38.0789 -95.1042 184° South 381 438 34,000  Level Kansas City Center
12:02AM 37.9744 -95.1131 184° South 380 437 34,000  Level Kansas City Center
12:03AM 37.8711 -95.1217 184° South 375 432 34,000  Level Kansas City Center
12:04AM 37.7667 -95.1339 185° South 375 432 34,000  Level Kansas City Center
12:05AM 37.6619 -95.1447 185° South 375 432 34,000  Level Kansas City Center
12:06AM 37.5569 -95.1531 184° South 375 432 34,000  Level Kansas City Center
12:07AM 37.4489 -95.1619 184° South 382 440 34,000  Level Kansas City Center
12:08AM 37.3414 -95.1719 184° South 383 441 34,000  Level Kansas City Center
12:09AM 37.2336 -95.1817 184° South 385 443 34,000  Level Kansas City Center
12:10AM 37.1261 -95.1911 184° South 386 444 34,000  Level Kansas City Center
12:11AM 36.9956 -95.2044 185° South 388 447 34,000  Level Kansas City Center
12:12AM 36.8869 -95.2142 184° South 389 448 34,000  Level Kansas City Center
12:13AM 36.7792 -95.2256 185° South 389 448 34,000  Level Kansas City Center
12:14AM 36.6686 -95.2353 184° South 389 448 34,000  Level Kansas City Center
12:16AM 36.4428 -95.2547 184° South 400 460 34,000  Level Fort Worth Center
12:17AM 36.3000 -95.2664 184° South 407 468 34,000  Level Kansas City Center
12:18AM 36.1861 -95.2761 184° South 407 468 34,000  Level Kansas City Center
12:19AM 36.0742 -95.2869 184° South 407 468 34,000  Level Kansas City Center
12:20AM 35.9625 -95.3006 186° South 407 468 34,000  Level Kansas City Center
12:21AM 35.8736 -95.3089 184° South 405 466 34,000  Level Fort Worth Center
12:22AM 35.7614 -95.3192 184° South 404 465 34,000 -480 Level Fort Worth Center
12:23AM 35.6492 -95.3292 184° South 404 465 33,100 -540 Descending Fort Worth Center
12:24AM 35.5131 -95.3419 184° South 405 466 33,000 -60 Descending Fort Worth Center
12:25AM 35.3992 -95.3500 183° South 406 467 33,000  Level Fort Worth Center
12:26AM 35.2833 -95.3603 184° South 409 471 33,000  Level Memphis Center
12:27AM 35.1700 -95.3700 184° South 410 472 33,000  Level Memphis Center
12:28AM 35.0544 -95.3794 184° South 410 472 33,000  Level Memphis Center
12:29AM 34.9436 -95.4192 196° South 413 475 33,000 -120 Level Memphis Center
12:30AM 34.8378 -95.4778 204° Southwest 419 482 32,800 -660 Descending Fort Worth Center
12:31AM 34.7306 -95.5364 204° Southwest 419 482 31,800 -1,020 Descending Fort Worth Center
12:32AM 34.6264 -95.5958 205° Southwest 420 483 30,800 -1,080 Descending Fort Worth Center
12:33AM 34.5236 -95.6525 204° Southwest 408 470 29,700 -1,080 Descending Fort Worth Center
12:34AM 34.4281 -95.7050 204° Southwest 384 442 28,700 -1,080 Descending Fort Worth Center
12:35AM 34.3328 -95.7561 204° Southwest 378 435 27,600 -1,080 Descending Fort Worth Center
12:36AM 34.2394 -95.8075 204° Southwest 371 427 26,600 -1,020 Descending Fort Worth Center
12:37AM 34.1453 -95.8586 204° Southwest 370 426 25,600 -1,140 Descending Fort Worth Center
12:38AM 34.0389 -95.9172 205° Southwest 369 425 24,400 -1,140 Descending Fort Worth Center
12:39AM 33.9486 -95.9656 204° Southwest 359 413 23,400 -1,020 Descending Fort Worth Center
12:40AM 33.8564 -96.0161 204° Southwest 359 413 22,400 -1,020 Descending Fort Worth Center
12:41AM 33.7619 -96.0658 204° Southwest 364 419 21,400 -1,440 Descending Fort Worth Center
12:42AM 33.6619 -96.1181 203° Southwest 364 419 19,600 -1,920 Descending Fort Worth Center
12:43AM 33.5731 -96.1658 204° Southwest 354 407 17,600 -2,100 Descending Fort Worth Center
12:44AM 33.4853 -96.2133 204° Southwest 350 403 15,400 -2,220 Descending Fort Worth Center
12:46AM 33.4003 -96.2600 205° Southwest 339 390 13,200 -2,100 Descending Fort Worth Center
12:47AM 33.3164 -96.3053 204° Southwest 335 386 11,200 -1,620 Descending Fort Worth Center
12:48AM 33.2450 -96.3603 213° Southwest 310 357 10,000 -1,200 Descending Fort Worth Center
12:49AM 33.1953 -96.4375 232° Southwest 272 313 8,800 -1,320 Descending Fort Worth Center
12:50AM 33.1481 -96.5017 229° Southwest 262 302 7,400 -1,680 Descending Fort Worth Center
12:51AM 33.0800 -96.5386 204° Southwest 265 305 5,500 -1,500 Descending Fort Worth Center
12:52AM 33.0108 -96.5767 205° Southwest 272 313 4,400 -1,140 Descending Fort Worth Center
12:53AM 32.9425 -96.5964 194° South 250 288 3,300 -960 Descending Fort Worth Center
12:54AM 32.8714 -96.6086 188° South 253 291 2,500 -480 Descending Fort Worth Center
12:55AM 32.8086 -96.6453 206° Southwest 258 297 2,400 -60 Descending Fort Worth Center
12:56AM 32.7678 -96.6933 225° Southwest 212 244 2,400  Level Fort Worth Center
12:57AM 32.7603 -96.7506 261° West 178 205 2,400 -300 Level Fort Worth Center
12:58AM 32.7886 -96.7900 311° West 151 174 1,800 -720 Descending Fort Worth Center
12:59AM 32.8153 -96.8214 315° West 136 157 1,000 -600 Descending Fort Worth Center
01:00AM 32.8356 -96.8450 316° Northwest 132 152 600 -420 Descending Fort Worth Center